Terminal Aerodrome Forecast
Issued by NWS

Home | Current Version | Previous Version | Text Only | Print | Product List | Glossary On
Versions: 1 2 3 4 5 6 7 8 9 10 11 12 13 14
000
FTUS41 KBTV 261732
TAFMSS
TAF
KMSS 261732Z 2618/2718 06008KT P6SM SCT200
     FM270000 06004KT P6SM BKN100
     FM270500 00000KT P6SM BKN140
     FM271500 22006KT P6SM BKN120=

USA.gov is the U.S. government's official web portal to all federal, state and local government web resources and services.